sensor_id;sensor_type;location;lat;lon;timestamp;P1;durP1;ratioP1;P2;durP2;ratioP2
22015;SDS011;64992;51.698;-0.292;2024-02-15T00:01:21;64.88;;;59.92;;
22015;SDS011;64992;51.698;-0.292;2024-02-15T00:03:47;63.47;;;59.22;;
22015;SDS011;64992;51.698;-0.292;2024-02-15T00:06:14;64.82;;;60.13;;
22015;SDS011;64992;51.698;-0.292;2024-02-15T00:08:40;70.45;;;65.13;;
22015;SDS011;64992;51.698;-0.292;2024-02-15T00:11:06;76.75;;;71.68;;
22015;SDS011;64992;51.698;-0.292;2024-02-15T00:13:34;67.50;;;62.63;;
22015;SDS011;64992;51.698;-0.292;2024-02-15T00:16:01;74.80;;;69.38;;
22015;SDS011;64992;51.698;-0.292;2024-02-15T00:18:27;61.00;;;55.92;;
22015;SDS011;64992;51.698;-0.292;2024-02-15T00:20:53;62.13;;;57.40;;
22015;SDS011;64992;51.698;-0.292;2024-02-15T00:23:19;80.72;;;75.55;;
22015;SDS011;64992;51.698;-0.292;2024-02-15T00:25:46;62.92;;;58.20;;
22015;SDS011;64992;51.698;-0.292;2024-02-15T00:28:12;62.33;;;58.20;;
22015;SDS011;64992;51.698;-0.292;2024-02-15T00:30:38;58.33;;;53.80;;
22015;SDS011;64992;51.698;-0.292;2024-02-15T00:33:04;76.60;;;70.47;;
22015;SDS011;64992;51.698;-0.292;2024-02-15T00:35:30;99.60;;;93.18;;
22015;SDS011;64992;51.698;-0.292;2024-02-15T00:37:57;59.55;;;55.47;;
22015;SDS011;64992;51.698;-0.292;2024-02-15T00:40:23;70.88;;;65.70;;
22015;SDS011;64992;51.698;-0.292;2024-02-15T00:42:49;74.80;;;69.22;;
22015;SDS011;64992;51.698;-0.292;2024-02-15T00:45:15;67.10;;;61.97;;
22015;SDS011;64992;51.698;-0.292;2024-02-15T00:47:41;73.45;;;68.20;;
22015;SDS011;64992;51.698;-0.292;2024-02-15T00:50:08;68.15;;;61.95;;
22015;SDS011;64992;51.698;-0.292;2024-02-15T00:52:35;62.38;;;57.63;;
22015;SDS011;64992;51.698;-0.292;2024-02-15T00:55:01;61.67;;;57.60;;
22015;SDS011;64992;51.698;-0.292;2024-02-15T00:57:27;64.55;;;60.30;;
22015;SDS011;64992;51.698;-0.292;2024-02-15T00:59:53;64.15;;;59.42;;
22015;SDS011;64992;51.698;-0.292;2024-02-15T01:02:19;58.22;;;53.78;;
22015;SDS011;64992;51.698;-0.292;2024-02-15T01:04:46;60.40;;;56.22;;
22015;SDS011;64992;51.698;-0.292;2024-02-15T01:07:12;59.80;;;55.67;;
22015;SDS011;64992;51.698;-0.292;2024-02-15T01:09:38;83.53;;;78.32;;
22015;SDS011;64992;51.698;-0.292;2024-02-15T01:12:04;84.30;;;78.43;;
22015;SDS011;64992;51.698;-0.292;2024-02-15T01:14:30;76.88;;;71.88;;
22015;SDS011;64992;51.698;-0.292;2024-02-15T01:16:57;58.05;;;53.70;;
22015;SDS011;64992;51.698;-0.292;2024-02-15T01:19:23;57.80;;;53.85;;
22015;SDS011;64992;51.698;-0.292;2024-02-15T01:21:49;63.15;;;58.58;;
22015;SDS011;64992;51.698;-0.292;2024-02-15T01:24:15;57.60;;;53.08;;
22015;SDS011;64992;51.698;-0.292;2024-02-15T01:26:41;70.75;;;65.95;;
22015;SDS011;64992;51.698;-0.292;2024-02-15T01:29:08;58.67;;;53.75;;
22015;SDS011;64992;51.698;-0.292;2024-02-15T01:31:37;79.32;;;73.30;;
22015;SDS011;64992;51.698;-0.292;2024-02-15T01:34:03;75.93;;;70.75;;
22015;SDS011;64992;51.698;-0.292;2024-02-15T01:36:29;68.30;;;63.22;;
22015;SDS011;64992;51.698;-0.292;2024-02-15T01:38:55;70.53;;;65.43;;
22015;SDS011;64992;51.698;-0.292;2024-02-15T01:41:21;72.90;;;67.03;;
22015;SDS011;64992;51.698;-0.292;2024-02-15T01:43:48;61.95;;;56.40;;
22015;SDS011;64992;51.698;-0.292;2024-02-15T01:46:15;63.95;;;58.95;;
22015;SDS011;64992;51.698;-0.292;2024-02-15T01:48:41;63.13;;;57.35;;
22015;SDS011;64992;51.698;-0.292;2024-02-15T01:51:09;73.28;;;66.75;;
22015;SDS011;64992;51.698;-0.292;2024-02-15T01:53:36;70.65;;;63.60;;
22015;SDS011;64992;51.698;-0.292;2024-02-15T01:56:02;110.13;;;102.45;;
22015;SDS011;64992;51.698;-0.292;2024-02-15T01:58:28;69.07;;;62.13;;
22015;SDS011;64992;51.698;-0.292;2024-02-15T02:00:58;64.30;;;58.08;;
22015;SDS011;64992;51.698;-0.292;2024-02-15T02:03:26;66.63;;;60.72;;
22015;SDS011;64992;51.698;-0.292;2024-02-15T02:05:52;70.72;;;63.53;;
22015;SDS011;64992;51.698;-0.292;2024-02-15T02:08:18;69.82;;;62.75;;
22015;SDS011;64992;51.698;-0.292;2024-02-15T02:10:44;76.57;;;69.10;;
22015;SDS011;64992;51.698;-0.292;2024-02-15T02:13:11;70.28;;;62.28;;
22015;SDS011;64992;51.698;-0.292;2024-02-15T02:15:37;79.25;;;71.20;;
22015;SDS011;64992;51.698;-0.292;2024-02-15T02:18:04;63.20;;;56.85;;
22015;SDS011;64992;51.698;-0.292;2024-02-15T02:20:35;69.78;;;63.60;;
22015;SDS011;64992;51.698;-0.292;2024-02-15T02:23:03;91.65;;;83.85;;
22015;SDS011;64992;51.698;-0.292;2024-02-15T02:25:32;70.07;;;63.35;;
22015;SDS011;64992;51.698;-0.292;2024-02-15T02:27:59;63.85;;;57.75;;
22015;SDS011;64992;51.698;-0.292;2024-02-15T02:30:25;66.20;;;60.13;;
22015;SDS011;64992;51.698;-0.292;2024-02-15T02:32:55;66.18;;;60.25;;
22015;SDS011;64992;51.698;-0.292;2024-02-15T02:35:21;78.93;;;72.10;;
22015;SDS011;64992;51.698;-0.292;2024-02-15T02:37:47;67.68;;;61.60;;
22015;SDS011;64992;51.698;-0.292;2024-02-15T02:40:14;82.07;;;75.88;;
22015;SDS011;64992;51.698;-0.292;2024-02-15T02:42:50;58.22;;;53.03;;
22015;SDS011;64992;51.698;-0.292;2024-02-15T02:45:17;69.07;;;63.83;;
22015;SDS011;64992;51.698;-0.292;2024-02-15T02:47:47;58.30;;;53.78;;
22015;SDS011;64992;51.698;-0.292;2024-02-15T02:50:13;54.13;;;50.17;;
22015;SDS011;64992;51.698;-0.292;2024-02-15T02:52:39;59.05;;;54.65;;
22015;SDS011;64992;51.698;-0.292;2024-02-15T02:55:05;65.00;;;60.33;;
22015;SDS011;64992;51.698;-0.292;2024-02-15T02:57:35;117.80;;;110.90;;
22015;SDS011;64992;51.698;-0.292;2024-02-15T03:00:03;57.47;;;53.22;;
22015;SDS011;64992;51.698;-0.292;2024-02-15T03:02:29;61.97;;;57.50;;
22015;SDS011;64992;51.698;-0.292;2024-02-15T03:04:55;51.78;;;47.72;;
22015;SDS011;64992;51.698;-0.292;2024-02-15T03:07:25;50.97;;;47.28;;
22015;SDS011;64992;51.698;-0.292;2024-02-15T03:09:51;52.83;;;48.92;;
22015;SDS011;64992;51.698;-0.292;2024-02-15T03:12:17;59.60;;;54.42;;
22015;SDS011;64992;51.698;-0.292;2024-02-15T03:14:43;64.97;;;59.95;;
22015;SDS011;64992;51.698;-0.292;2024-02-15T03:17:10;54.17;;;49.75;;
22015;SDS011;64992;51.698;-0.292;2024-02-15T03:19:36;67.25;;;61.47;;
22015;SDS011;64992;51.698;-0.292;2024-02-15T03:22:02;56.38;;;50.83;;
22015;SDS011;64992;51.698;-0.292;2024-02-15T03:24:28;53.97;;;49.40;;
22015;SDS011;64992;51.698;-0.292;2024-02-15T03:26:54;59.35;;;54.55;;
22015;SDS011;64992;51.698;-0.292;2024-02-15T03:29:20;64.25;;;59.17;;
22015;SDS011;64992;51.698;-0.292;2024-02-15T03:31:47;68.93;;;63.45;;
22015;SDS011;64992;51.698;-0.292;2024-02-15T03:34:14;60.10;;;55.17;;
22015;SDS011;64992;51.698;-0.292;2024-02-15T03:36:41;73.28;;;68.03;;
22015;SDS011;64992;51.698;-0.292;2024-02-15T03:39:06;69.50;;;64.15;;
22015;SDS011;64992;51.698;-0.292;2024-02-15T03:41:33;94.03;;;87.72;;
22015;SDS011;64992;51.698;-0.292;2024-02-15T03:43:59;58.95;;;54.20;;
22015;SDS011;64992;51.698;-0.292;2024-02-15T03:46:25;62.58;;;57.10;;
22015;SDS011;64992;51.698;-0.292;2024-02-15T03:48:52;59.40;;;54.05;;
22015;SDS011;64992;51.698;-0.292;2024-02-15T03:51:19;69.82;;;63.47;;
22015;SDS011;64992;51.698;-0.292;2024-02-15T03:53:45;63.92;;;58.38;;
22015;SDS011;64992;51.698;-0.292;2024-02-15T03:56:12;63.63;;;57.83;;
22015;SDS011;64992;51.698;-0.292;2024-02-15T03:58:38;59.58;;;54.33;;
22015;SDS011;64992;51.698;-0.292;2024-02-15T04:01:04;76.28;;;70.10;;
22015;SDS011;64992;51.698;-0.292;2024-02-15T04:03:32;71.57;;;64.93;;
22015;SDS011;64992;51.698;-0.292;2024-02-15T04:05:59;69.25;;;63.35;;
22015;SDS011;64992;51.698;-0.292;2024-02-15T04:08:25;100.68;;;93.30;;
22015;SDS011;64992;51.698;-0.292;2024-02-15T04:10:51;70.22;;;63.42;;
22015;SDS011;64992;51.698;-0.292;2024-02-15T04:13:18;59.17;;;53.50;;
22015;SDS011;64992;51.698;-0.292;2024-02-15T04:15:44;55.92;;;51.20;;
22015;SDS011;64992;51.698;-0.292;2024-02-15T04:18:12;66.60;;;60.30;;
22015;SDS011;64992;51.698;-0.292;2024-02-15T04:20:39;98.18;;;90.53;;
22015;SDS011;64992;51.698;-0.292;2024-02-15T04:23:10;82.80;;;75.88;;
22015;SDS011;64992;51.698;-0.292;2024-02-15T04:25:36;59.90;;;54.80;;
22015;SDS011;64992;51.698;-0.292;2024-02-15T04:28:02;66.97;;;61.25;;
22015;SDS011;64992;51.698;-0.292;2024-02-15T04:30:29;67.30;;;61.40;;
22015;SDS011;64992;51.698;-0.292;2024-02-15T04:32:55;64.50;;;58.83;;
22015;SDS011;64992;51.698;-0.292;2024-02-15T04:35:21;78.07;;;69.90;;
22015;SDS011;64992;51.698;-0.292;2024-02-15T04:37:47;63.25;;;57.47;;
22015;SDS011;64992;51.698;-0.292;2024-02-15T04:40:14;65.10;;;59.22;;
22015;SDS011;64992;51.698;-0.292;2024-02-15T04:42:40;72.47;;;66.13;;
22015;SDS011;64992;51.698;-0.292;2024-02-15T04:45:09;64.78;;;59.65;;
22015;SDS011;64992;51.698;-0.292;2024-02-15T04:47:37;57.53;;;52.58;;
22015;SDS011;64992;51.698;-0.292;2024-02-15T04:50:05;68.55;;;62.70;;
22015;SDS011;64992;51.698;-0.292;2024-02-15T04:52:32;66.25;;;59.92;;
22015;SDS011;64992;51.698;-0.292;2024-02-15T04:54:58;69.22;;;63.00;;
22015;SDS011;64992;51.698;-0.292;2024-02-15T04:57:24;69.90;;;64.00;;
22015;SDS011;64992;51.698;-0.292;2024-02-15T04:59:54;84.15;;;77.00;;
22015;SDS011;64992;51.698;-0.292;2024-02-15T05:02:20;94.35;;;86.25;;
22015;SDS011;64992;51.698;-0.292;2024-02-15T05:04:49;69.22;;;63.28;;
22015;SDS011;64992;51.698;-0.292;2024-02-15T05:07:20;141.13;;;130.55;;
22015;SDS011;64992;51.698;-0.292;2024-02-15T05:09:47;71.43;;;63.67;;
22015;SDS011;64992;51.698;-0.292;2024-02-15T05:12:20;106.70;;;98.28;;
22015;SDS011;64992;51.698;-0.292;2024-02-15T05:14:47;78.75;;;70.97;;
22015;SDS011;64992;51.698;-0.292;2024-02-15T05:17:13;97.47;;;88.95;;
22015;SDS011;64992;51.698;-0.292;2024-02-15T05:19:39;70.75;;;63.33;;
22015;SDS011;64992;51.698;-0.292;2024-02-15T05:22:05;103.90;;;94.40;;
22015;SDS011;64992;51.698;-0.292;2024-02-15T05:24:31;68.13;;;61.05;;
22015;SDS011;64992;51.698;-0.292;2024-02-15T05:26:57;77.13;;;64.40;;
22015;SDS011;64992;51.698;-0.292;2024-02-15T05:29:24;98.57;;;71.03;;
22015;SDS011;64992;51.698;-0.292;2024-02-15T05:31:50;123.95;;;113.28;;
22015;SDS011;64992;51.698;-0.292;2024-02-15T05:34:16;92.22;;;66.07;;
22015;SDS011;64992;51.698;-0.292;2024-02-15T05:36:43;85.93;;;66.68;;
22015;SDS011;64992;51.698;-0.292;2024-02-15T05:39:09;102.75;;;73.18;;
22015;SDS011;64992;51.698;-0.292;2024-02-15T05:41:36;96.13;;;64.30;;
22015;SDS011;64992;51.698;-0.292;2024-02-15T05:44:02;134.70;;;81.50;;
22015;SDS011;64992;51.698;-0.292;2024-02-15T05:46:32;110.63;;;98.63;;
22015;SDS011;64992;51.698;-0.292;2024-02-15T05:49:02;112.40;;;73.82;;
22015;SDS011;64992;51.698;-0.292;2024-02-15T05:51:29;114.00;;;72.78;;
22015;SDS011;64992;51.698;-0.292;2024-02-15T05:53:56;128.55;;;75.13;;
22015;SDS011;64992;51.698;-0.292;2024-02-15T05:56:24;99.60;;;71.85;;
22015;SDS011;64992;51.698;-0.292;2024-02-15T05:58:51;136.13;;;68.85;;
22015;SDS011;64992;51.698;-0.292;2024-02-15T06:01:17;136.40;;;94.75;;
22015;SDS011;64992;51.698;-0.292;2024-02-15T06:03:43;140.27;;;87.32;;
22015;SDS011;64992;51.698;-0.292;2024-02-15T06:06:10;139.70;;;73.25;;
22015;SDS011;64992;51.698;-0.292;2024-02-15T06:08:36;190.68;;;85.95;;
22015;SDS011;64992;51.698;-0.292;2024-02-15T06:11:03;164.63;;;96.80;;
22015;SDS011;64992;51.698;-0.292;2024-02-15T06:13:30;165.43;;;82.18;;
22015;SDS011;64992;51.698;-0.292;2024-02-15T06:15:56;135.38;;;80.03;;
22015;SDS011;64992;51.698;-0.292;2024-02-15T06:18:26;162.10;;;78.45;;
22015;SDS011;64992;51.698;-0.292;2024-02-15T06:20:57;210.43;;;83.88;;
22015;SDS011;64992;51.698;-0.292;2024-02-15T06:23:24;172.48;;;101.00;;
22015;SDS011;64992;51.698;-0.292;2024-02-15T06:25:52;184.43;;;78.38;;
22015;SDS011;64992;51.698;-0.292;2024-02-15T06:28:18;165.70;;;83.72;;
22015;SDS011;64992;51.698;-0.292;2024-02-15T06:31:05;170.10;;;98.97;;
22015;SDS011;64992;51.698;-0.292;2024-02-15T06:33:50;183.05;;;97.07;;
22015;SDS011;64992;51.698;-0.292;2024-02-15T06:36:34;159.27;;;87.50;;
22015;SDS011;64992;51.698;-0.292;2024-02-15T06:39:23;295.23;;;91.85;;
22015;SDS011;64992;51.698;-0.292;2024-02-15T06:42:14;167.13;;;87.93;;
22015;SDS011;64992;51.698;-0.292;2024-02-15T06:47:07;135.85;;;83.57;;
22015;SDS011;64992;51.698;-0.292;2024-02-15T06:49:35;112.88;;;78.57;;
22015;SDS011;64992;51.698;-0.292;2024-02-15T06:52:01;139.02;;;102.75;;
22015;SDS011;64992;51.698;-0.292;2024-02-15T06:54:28;129.88;;;80.95;;
22015;SDS011;64992;51.698;-0.292;2024-02-15T06:56:54;123.13;;;81.78;;
22015;SDS011;64992;51.698;-0.292;2024-02-15T06:59:20;123.07;;;84.93;;
22015;SDS011;64992;51.698;-0.292;2024-02-15T07:01:48;128.50;;;86.22;;
22015;SDS011;64992;51.698;-0.292;2024-02-15T07:04:14;367.35;;;141.85;;
22015;SDS011;64992;51.698;-0.292;2024-02-15T07:06:40;138.07;;;103.90;;
22015;SDS011;64992;51.698;-0.292;2024-02-15T07:09:09;190.82;;;99.20;;
22015;SDS011;64992;51.698;-0.292;2024-02-15T07:11:35;115.68;;;91.38;;
22015;SDS011;64992;51.698;-0.292;2024-02-15T07:14:02;96.45;;;81.82;;
22015;SDS011;64992;51.698;-0.292;2024-02-15T07:16:29;106.20;;;79.05;;
22015;SDS011;64992;51.698;-0.292;2024-02-15T07:18:56;118.93;;;106.72;;
22015;SDS011;64992;51.698;-0.292;2024-02-15T07:21:22;95.32;;;85.65;;
22015;SDS011;64992;51.698;-0.292;2024-02-15T07:23:52;99.72;;;89.18;;
22015;SDS011;64992;51.698;-0.292;2024-02-15T07:26:19;100.30;;;87.90;;
22015;SDS011;64992;51.698;-0.292;2024-02-15T07:28:45;127.25;;;115.15;;
22015;SDS011;64992;51.698;-0.292;2024-02-15T07:31:13;132.02;;;103.65;;
22015;SDS011;64992;51.698;-0.292;2024-02-15T07:33:39;98.70;;;88.13;;
22015;SDS011;64992;51.698;-0.292;2024-02-15T07:36:08;109.57;;;98.45;;
22015;SDS011;64992;51.698;-0.292;2024-02-15T07:38:34;107.45;;;98.57;;
22015;SDS011;64992;51.698;-0.292;2024-02-15T07:41:00;86.40;;;77.38;;
22015;SDS011;64992;51.698;-0.292;2024-02-15T07:43:27;88.15;;;79.80;;
22015;SDS011;64992;51.698;-0.292;2024-02-15T07:45:53;82.30;;;73.93;;
22015;SDS011;64992;51.698;-0.292;2024-02-15T07:48:19;111.28;;;101.47;;
22015;SDS011;64992;51.698;-0.292;2024-02-15T07:50:45;78.30;;;70.82;;
22015;SDS011;64992;51.698;-0.292;2024-02-15T07:53:11;79.95;;;72.65;;
22015;SDS011;64992;51.698;-0.292;2024-02-15T07:55:38;78.82;;;71.93;;
22015;SDS011;64992;51.698;-0.292;2024-02-15T07:58:04;70.75;;;64.47;;
22015;SDS011;64992;51.698;-0.292;2024-02-15T08:00:31;82.68;;;75.95;;
22015;SDS011;64992;51.698;-0.292;2024-02-15T08:02:57;72.85;;;66.93;;
22015;SDS011;64992;51.698;-0.292;2024-02-15T08:05:24;77.10;;;70.07;;
22015;SDS011;64992;51.698;-0.292;2024-02-15T08:07:50;79.20;;;72.55;;
22015;SDS011;64992;51.698;-0.292;2024-02-15T08:10:17;76.22;;;69.28;;
22015;SDS011;64992;51.698;-0.292;2024-02-15T08:12:44;72.80;;;66.30;;
22015;SDS011;64992;51.698;-0.292;2024-02-15T08:15:11;69.63;;;63.22;;
22015;SDS011;64992;51.698;-0.292;2024-02-15T08:17:40;66.55;;;61.42;;
22015;SDS011;64992;51.698;-0.292;2024-02-15T08:20:07;64.63;;;59.50;;
22015;SDS011;64992;51.698;-0.292;2024-02-15T08:22:34;74.40;;;68.15;;
22015;SDS011;64992;51.698;-0.292;2024-02-15T08:25:00;73.00;;;66.22;;
22015;SDS011;64992;51.698;-0.292;2024-02-15T08:27:26;81.07;;;74.72;;
22015;SDS011;64992;51.698;-0.292;2024-02-15T08:29:52;71.43;;;64.28;;
22015;SDS011;64992;51.698;-0.292;2024-02-15T08:32:18;69.20;;;63.72;;
22015;SDS011;64992;51.698;-0.292;2024-02-15T08:34:45;63.47;;;57.97;;
22015;SDS011;64992;51.698;-0.292;2024-02-15T08:37:13;65.85;;;59.53;;
22015;SDS011;64992;51.698;-0.292;2024-02-15T08:39:39;66.95;;;61.55;;
22015;SDS011;64992;51.698;-0.292;2024-02-15T08:42:05;69.20;;;63.42;;
22015;SDS011;64992;51.698;-0.292;2024-02-15T08:44:31;64.28;;;59.05;;
22015;SDS011;64992;51.698;-0.292;2024-02-15T08:46:58;63.85;;;59.00;;
22015;SDS011;64992;51.698;-0.292;2024-02-15T08:49:24;62.10;;;57.10;;
22015;SDS011;64992;51.698;-0.292;2024-02-15T08:51:52;62.65;;;57.33;;
22015;SDS011;64992;51.698;-0.292;2024-02-15T08:54:18;65.25;;;60.75;;
22015;SDS011;64992;51.698;-0.292;2024-02-15T08:56:46;66.10;;;60.75;;
22015;SDS011;64992;51.698;-0.292;2024-02-15T08:59:12;71.00;;;66.63;;
22015;SDS011;64992;51.698;-0.292;2024-02-15T09:01:40;65.68;;;60.72;;
22015;SDS011;64992;51.698;-0.292;2024-02-15T09:04:08;67.20;;;62.42;;
22015;SDS011;64992;51.698;-0.292;2024-02-15T09:06:34;68.18;;;64.15;;
22015;SDS011;64992;51.698;-0.292;2024-02-15T09:09:00;63.30;;;58.88;;
22015;SDS011;64992;51.698;-0.292;2024-02-15T09:11:29;68.65;;;63.85;;
22015;SDS011;64992;51.698;-0.292;2024-02-15T09:13:55;70.03;;;65.47;;
22015;SDS011;64992;51.698;-0.292;2024-02-15T09:16:21;64.95;;;59.97;;
22015;SDS011;64992;51.698;-0.292;2024-02-15T09:18:47;47.92;;;44.55;;
22015;SDS011;64992;51.698;-0.292;2024-02-15T09:21:13;51.30;;;48.00;;
22015;SDS011;64992;51.698;-0.292;2024-02-15T09:23:39;50.03;;;46.47;;
22015;SDS011;64992;51.698;-0.292;2024-02-15T09:26:05;50.00;;;46.10;;
22015;SDS011;64992;51.698;-0.292;2024-02-15T09:28:34;50.95;;;47.15;;
22015;SDS011;64992;51.698;-0.292;2024-02-15T09:31:00;49.78;;;45.70;;
22015;SDS011;64992;51.698;-0.292;2024-02-15T09:33:27;54.83;;;50.75;;
22015;SDS011;64992;51.698;-0.292;2024-02-15T09:35:52;53.60;;;49.95;;
22015;SDS011;64992;51.698;-0.292;2024-02-15T09:38:20;56.35;;;52.75;;
22015;SDS011;64992;51.698;-0.292;2024-02-15T09:40:49;52.55;;;49.17;;
22015;SDS011;64992;51.698;-0.292;2024-02-15T09:43:16;45.60;;;42.45;;
22015;SDS011;64992;51.698;-0.292;2024-02-15T09:45:42;53.13;;;49.53;;
22015;SDS011;64992;51.698;-0.292;2024-02-15T09:48:08;47.42;;;44.38;;
22015;SDS011;64992;51.698;-0.292;2024-02-15T09:50:35;45.67;;;42.85;;
22015;SDS011;64992;51.698;-0.292;2024-02-15T09:53:03;45.75;;;42.38;;
22015;SDS011;64992;51.698;-0.292;2024-02-15T09:55:31;38.10;;;35.53;;
22015;SDS011;64992;51.698;-0.292;2024-02-15T09:57:59;40.25;;;37.58;;
22015;SDS011;64992;51.698;-0.292;2024-02-15T10:00:25;39.95;;;36.72;;
22015;SDS011;64992;51.698;-0.292;2024-02-15T10:02:51;44.60;;;40.95;;
22015;SDS011;64992;51.698;-0.292;2024-02-15T10:05:18;36.35;;;34.03;;
22015;SDS011;64992;51.698;-0.292;2024-02-15T10:07:44;31.55;;;29.15;;
22015;SDS011;64992;51.698;-0.292;2024-02-15T10:10:17;29.88;;;27.67;;
22015;SDS011;64992;51.698;-0.292;2024-02-15T10:12:44;33.03;;;30.38;;
22015;SDS011;64992;51.698;-0.292;2024-02-15T10:17:59;30.25;;;28.27;;
22015;SDS011;64992;51.698;-0.292;2024-02-15T10:20:26;28.98;;;26.65;;
22015;SDS011;64992;51.698;-0.292;2024-02-15T10:22:56;29.92;;;27.60;;
22015;SDS011;64992;51.698;-0.292;2024-02-15T10:25:34;32.97;;;30.77;;
22015;SDS011;64992;51.698;-0.292;2024-02-15T10:28:04;25.83;;;24.23;;
22015;SDS011;64992;51.698;-0.292;2024-02-15T10:30:37;28.13;;;26.05;;
22015;SDS011;64992;51.698;-0.292;2024-02-15T10:33:03;29.40;;;27.48;;
22015;SDS011;64992;51.698;-0.292;2024-02-15T10:35:30;27.77;;;25.88;;
22015;SDS011;64992;51.698;-0.292;2024-02-15T10:38:09;25.02;;;23.15;;
22015;SDS011;64992;51.698;-0.292;2024-02-15T10:40:36;24.90;;;23.20;;
22015;SDS011;64992;51.698;-0.292;2024-02-15T10:43:05;28.27;;;26.23;;
22015;SDS011;64992;51.698;-0.292;2024-02-15T10:45:32;24.15;;;22.55;;
22015;SDS011;64992;51.698;-0.292;2024-02-15T10:47:58;24.30;;;22.40;;
22015;SDS011;64992;51.698;-0.292;2024-02-15T10:50:24;23.42;;;21.65;;
22015;SDS011;64992;51.698;-0.292;2024-02-15T10:52:54;25.38;;;23.42;;
22015;SDS011;64992;51.698;-0.292;2024-02-15T10:55:40;25.40;;;23.63;;
22015;SDS011;64992;51.698;-0.292;2024-02-15T10:58:09;23.30;;;21.83;;
22015;SDS011;64992;51.698;-0.292;2024-02-15T11:00:38;26.35;;;23.27;;
22015;SDS011;64992;51.698;-0.292;2024-02-15T11:03:05;23.77;;;22.20;;
22015;SDS011;64992;51.698;-0.292;2024-02-15T11:05:36;24.63;;;22.83;;
22015;SDS011;64992;51.698;-0.292;2024-02-15T11:08:07;26.67;;;25.05;;
22015;SDS011;64992;51.698;-0.292;2024-02-15T11:10:34;28.17;;;26.38;;
22015;SDS011;64992;51.698;-0.292;2024-02-15T11:13:01;27.70;;;25.58;;
22015;SDS011;64992;51.698;-0.292;2024-02-15T11:15:40;26.85;;;25.10;;
22015;SDS011;64992;51.698;-0.292;2024-02-15T11:18:07;25.55;;;23.65;;
22015;SDS011;64992;51.698;-0.292;2024-02-15T11:23:02;26.73;;;24.83;;
22015;SDS011;64992;51.698;-0.292;2024-02-15T11:25:32;33.08;;;30.75;;
22015;SDS011;64992;51.698;-0.292;2024-02-15T11:30:52;26.05;;;24.15;;
22015;SDS011;64992;51.698;-0.292;2024-02-15T11:33:34;31.35;;;29.20;;
22015;SDS011;64992;51.698;-0.292;2024-02-15T11:36:13;25.55;;;23.70;;
22015;SDS011;64992;51.698;-0.292;2024-02-15T11:38:40;28.70;;;26.50;;
22015;SDS011;64992;51.698;-0.292;2024-02-15T11:41:06;34.78;;;32.75;;
22015;SDS011;64992;51.698;-0.292;2024-02-15T11:48:39;28.95;;;26.38;;
22015;SDS011;64992;51.698;-0.292;2024-02-15T11:51:06;25.83;;;23.85;;
22015;SDS011;64992;51.698;-0.292;2024-02-15T11:53:32;29.77;;;27.80;;
22015;SDS011;64992;51.698;-0.292;2024-02-15T11:56:01;32.35;;;30.17;;
22015;SDS011;64992;51.698;-0.292;2024-02-15T11:58:29;28.83;;;27.13;;
22015;SDS011;64992;51.698;-0.292;2024-02-15T12:01:07;31.88;;;29.58;;
22015;SDS011;64992;51.698;-0.292;2024-02-15T12:03:53;37.63;;;34.55;;
22015;SDS011;64992;51.698;-0.292;2024-02-15T12:06:37;25.45;;;23.73;;
22015;SDS011;64992;51.698;-0.292;2024-02-15T12:09:22;27.50;;;25.67;;
22015;SDS011;64992;51.698;-0.292;2024-02-15T12:12:09;28.15;;;26.33;;
22015;SDS011;64992;51.698;-0.292;2024-02-15T12:15:00;31.40;;;29.40;;
22015;SDS011;64992;51.698;-0.292;2024-02-15T12:17:45;24.98;;;23.08;;
22015;SDS011;64992;51.698;-0.292;2024-02-15T12:20:30;37.17;;;34.70;;
22015;SDS011;64992;51.698;-0.292;2024-02-15T12:22:57;27.63;;;25.95;;
22015;SDS011;64992;51.698;-0.292;2024-02-15T12:25:26;32.38;;;30.38;;
22015;SDS011;64992;51.698;-0.292;2024-02-15T12:27:53;32.83;;;30.58;;
22015;SDS011;64992;51.698;-0.292;2024-02-15T12:30:19;28.77;;;26.55;;
22015;SDS011;64992;51.698;-0.292;2024-02-15T12:32:46;32.72;;;30.05;;
22015;SDS011;64992;51.698;-0.292;2024-02-15T12:35:22;22.20;;;20.55;;
22015;SDS011;64992;51.698;-0.292;2024-02-15T12:40:36;28.52;;;26.83;;
22015;SDS011;64992;51.698;-0.292;2024-02-15T12:43:04;28.27;;;26.02;;
22015;SDS011;64992;51.698;-0.292;2024-02-15T12:45:31;34.75;;;31.85;;
22015;SDS011;64992;51.698;-0.292;2024-02-15T12:47:57;20.23;;;18.65;;
22015;SDS011;64992;51.698;-0.292;2024-02-15T12:50:27;26.35;;;24.85;;
22015;SDS011;64992;51.698;-0.292;2024-02-15T12:52:53;28.23;;;26.45;;
22015;SDS011;64992;51.698;-0.292;2024-02-15T12:55:22;33.38;;;31.05;;
22015;SDS011;64992;51.698;-0.292;2024-02-15T12:57:52;31.88;;;30.08;;
22015;SDS011;64992;51.698;-0.292;2024-02-15T13:00:23;44.40;;;42.08;;
22015;SDS011;64992;51.698;-0.292;2024-02-15T13:05:20;41.90;;;39.15;;
22015;SDS011;64992;51.698;-0.292;2024-02-15T13:07:50;46.47;;;44.08;;
22015;SDS011;64992;51.698;-0.292;2024-02-15T13:10:16;53.28;;;49.90;;
22015;SDS011;64992;51.698;-0.292;2024-02-15T13:12:43;51.55;;;48.67;;
22015;SDS011;64992;51.698;-0.292;2024-02-15T13:15:10;57.67;;;54.25;;
22015;SDS011;64992;51.698;-0.292;2024-02-15T13:17:39;39.28;;;37.05;;
22015;SDS011;64992;51.698;-0.292;2024-02-15T13:20:06;32.10;;;30.20;;
22015;SDS011;64992;51.698;-0.292;2024-02-15T13:22:37;41.17;;;38.92;;
22015;SDS011;64992;51.698;-0.292;2024-02-15T13:25:07;27.48;;;26.05;;
22015;SDS011;64992;51.698;-0.292;2024-02-15T13:27:34;42.58;;;39.72;;
22015;SDS011;64992;51.698;-0.292;2024-02-15T13:30:00;38.40;;;36.38;;
22015;SDS011;64992;51.698;-0.292;2024-02-15T13:32:26;42.80;;;40.50;;
22015;SDS011;64992;51.698;-0.292;2024-02-15T13:34:52;33.42;;;31.50;;
22015;SDS011;64992;51.698;-0.292;2024-02-15T13:37:21;25.75;;;23.80;;
22015;SDS011;64992;51.698;-0.292;2024-02-15T13:39:48;67.25;;;63.30;;
22015;SDS011;64992;51.698;-0.292;2024-02-15T13:42:15;33.28;;;31.27;;
22015;SDS011;64992;51.698;-0.292;2024-02-15T13:44:42;67.88;;;64.35;;
22015;SDS011;64992;51.698;-0.292;2024-02-15T13:47:08;63.92;;;60.53;;
22015;SDS011;64992;51.698;-0.292;2024-02-15T13:49:34;60.67;;;57.53;;
22015;SDS011;64992;51.698;-0.292;2024-02-15T13:52:00;30.83;;;29.27;;
22015;SDS011;64992;51.698;-0.292;2024-02-15T13:54:28;93.95;;;89.43;;
22015;SDS011;64992;51.698;-0.292;2024-02-15T13:56:55;54.53;;;51.45;;
22015;SDS011;64992;51.698;-0.292;2024-02-15T13:59:21;95.15;;;90.47;;
22015;SDS011;64992;51.698;-0.292;2024-02-15T14:01:48;63.22;;;60.03;;
22015;SDS011;64992;51.698;-0.292;2024-02-15T14:04:14;112.53;;;106.85;;
22015;SDS011;64992;51.698;-0.292;2024-02-15T14:06:41;103.75;;;98.43;;
22015;SDS011;64992;51.698;-0.292;2024-02-15T14:09:09;116.60;;;110.93;;
22015;SDS011;64992;51.698;-0.292;2024-02-15T14:11:38;131.13;;;124.82;;
22015;SDS011;64992;51.698;-0.292;2024-02-15T14:14:04;124.45;;;118.40;;
22015;SDS011;64992;51.698;-0.292;2024-02-15T14:16:30;139.52;;;132.57;;
22015;SDS011;64992;51.698;-0.292;2024-02-15T14:18:56;104.47;;;99.45;;
22015;SDS011;64992;51.698;-0.292;2024-02-15T14:21:22;131.07;;;124.68;;
22015;SDS011;64992;51.698;-0.292;2024-02-15T14:23:48;137.38;;;130.48;;
22015;SDS011;64992;51.698;-0.292;2024-02-15T14:26:15;123.72;;;117.63;;
22015;SDS011;64992;51.698;-0.292;2024-02-15T14:28:42;125.63;;;119.47;;
22015;SDS011;64992;51.698;-0.292;2024-02-15T14:31:10;123.10;;;117.30;;